Time;durP1;ratioP1;P1;durP2;ratioP2;P2;SDS_P1;SDS_P2;PMS_P1;PMS_P2;Temp;Humidity;BMP_temperature;BMP_pressure;BME280_temperature;BME280_humidity;BME280_pressure;Samples;Min_cycle;Max_cycle;Signal;HPM_P1;HPM_P2
2023/05/26 00:01:59;;;;;;;8.67;4.30;;;;;;;14.97;78.54;98736.16;5096598;28;20577;-77
2023/05/26 00:04:25;;;;;;;9.20;4.90;;;;;;;14.77;78.85;98741.00;5096555;28;20204;-77
2023/05/26 00:06:52;;;;;;;7.80;4.93;;;;;;;14.82;78.85;98741.13;5096444;28;20246;-77
2023/05/26 00:09:20;;;;;;;6.57;4.30;;;;;;;14.80;77.73;98743.22;5096116;28;20247;-77
2023/05/26 00:11:46;;;;;;;8.83;4.33;;;;;;;14.75;78.17;98741.22;5096176;28;20663;-77
2023/05/26 00:14:15;;;;;;;6.90;4.20;;;;;;;14.69;78.17;98739.47;5096410;28;20230;-77
2023/05/26 00:16:42;;;;;;;7.07;4.30;;;;;;;14.81;78.53;98744.84;5095205;28;20236;-77
2023/05/26 00:19:09;;;;;;;9.87;4.80;;;;;;;14.70;78.32;98741.09;5096257;28;20211;-77
2023/05/26 00:21:36;;;;;;;8.83;4.70;;;;;;;14.80;78.61;98741.38;5096806;28;20208;-77
2023/05/26 00:24:03;;;;;;;6.33;4.23;;;;;;;14.63;79.26;98735.03;5096335;28;20224;-77
2023/05/26 00:26:29;;;;;;;6.87;4.40;;;;;;;14.62;78.92;98738.75;5096443;28;20563;-77
2023/05/26 00:28:56;;;;;;;7.17;4.33;;;;;;;14.61;79.68;98739.78;5096994;28;20210;-77
2023/05/26 00:31:22;;;;;;;4.90;4.30;;;;;;;14.56;79.61;98739.66;5096265;28;20208;-77
2023/05/26 00:33:49;;;;;;;7.87;4.63;;;;;;;14.56;79.20;98745.00;5096022;28;20555;-77
2023/05/26 00:36:15;;;;;;;6.07;4.57;;;;;;;14.56;79.76;98739.66;5095968;28;20224;-77
2023/05/26 00:38:42;;;;;;;7.13;4.93;;;;;;;14.45;81.16;98735.09;5095925;28;20204;-77
2023/05/26 00:41:08;;;;;;;5.90;4.37;;;;;;;14.51;80.63;98736.03;5096089;28;20216;-77
2023/05/26 00:43:35;;;;;;;8.97;5.10;;;;;;;14.47;81.13;98743.69;5095762;28;20255;-77
2023/05/26 00:46:01;;;;;;;7.30;4.30;;;;;;;14.47;80.30;98732.97;5095681;28;20230;-77
2023/05/26 00:48:27;;;;;;;6.20;4.40;;;;;;;14.52;80.14;98740.34;5095652;28;20200;-77
2023/05/26 00:50:54;;;;;;;6.63;4.60;;;;;;;14.46;80.40;98744.72;5095429;28;20719;-77
2023/05/26 00:53:20;;;;;;;7.30;4.30;;;;;;;14.48;80.19;98745.31;5095585;28;20211;-77
2023/05/26 00:55:51;;;;;;;6.83;4.10;;;;;;;14.44;81.33;98738.81;5095499;28;20220;-77
2023/05/26 00:58:18;;;;;;;6.33;4.57;;;;;;;14.53;79.67;98741.97;5095639;28;20184;-77
2023/05/26 01:00:45;;;;;;;4.77;4.10;;;;;;;14.59;79.37;98743.72;5095501;28;20208;-77
2023/05/26 01:03:13;;;;;;;6.60;4.50;;;;;;;14.55;80.40;98743.38;5094935;28;20690;-77
2023/05/26 01:05:40;;;;;;;6.67;4.47;;;;;;;14.48;81.74;98745.31;5095302;28;20228;-77
2023/05/26 01:08:06;;;;;;;6.17;4.47;;;;;;;14.49;80.59;98730.91;5095334;28;20204;-77
2023/05/26 01:10:33;;;;;;;7.03;4.40;;;;;;;14.49;80.21;98732.75;5095343;28;20203;-77
2023/05/26 01:13:09;;;;;;;6.23;4.50;;;;;;;14.49;79.86;98724.72;5095226;28;20204;-77
2023/05/26 01:15:47;;;;;;;6.60;4.33;;;;;;;14.43;80.23;98723.78;5094791;28;20733;-77
2023/05/26 01:18:20;;;;;;;7.63;4.70;;;;;;;14.44;80.43;98729.94;5095184;28;20202;-77
2023/05/26 01:20:53;;;;;;;8.50;5.17;;;;;;;14.51;79.44;98728.00;5095103;28;20279;-77
2023/05/26 01:23:46;;;;;;;7.47;4.40;;;;;;;14.49;80.12;98727.41;5095008;28;20215;-77
2023/05/26 01:26:52;;;;;;;6.73;4.23;;;;;;;14.43;80.45;98725.66;5094960;28;20232;-77
2023/05/26 01:29:22;;;;;;;5.10;4.37;;;;;;;14.47;80.41;98729.50;5095146;28;20196;-77
2023/05/26 01:31:48;;;;;;;8.17;5.20;;;;;;;14.49;80.75;98732.75;5093414;28;20208;-77
2023/05/26 01:34:14;;;;;;;7.40;4.70;;;;;;;14.39;81.25;98735.16;5094772;28;20200;-77
2023/05/26 01:36:41;;;;;;;5.43;4.60;;;;;;;14.37;82.21;98734.56;5094638;28;20220;-77
2023/05/26 01:39:10;;;;;;;6.87;4.73;;;;;;;14.32;82.58;98743.28;5094709;28;20210;-77
2023/05/26 01:41:39;;;;;;;8.73;4.87;;;;;;;14.26;82.59;98738.84;5094724;28;20253;-77
2023/05/26 01:44:30;;;;;;;6.50;4.53;;;;;;;14.25;84.13;98739.84;5094130;28;20699;-77
2023/05/26 01:46:56;;;;;;;5.10;4.30;;;;;;;14.33;83.79;98728.06;5093404;28;20224;-77
2023/05/26 01:49:28;;;;;;;5.77;4.67;;;;;;;14.35;83.64;98737.50;5094574;28;20211;-77
2023/05/26 01:52:00;;;;;;;6.33;4.93;;;;;;;14.33;83.25;98730.72;5095125;28;20192;-77
2023/05/26 01:54:28;;;;;;;6.33;4.60;;;;;;;14.25;83.55;98739.84;5094757;28;20192;-77
2023/05/26 01:56:56;;;;;;;7.37;4.60;;;;;;;14.29;83.08;98734.91;5094609;28;20231;-77
2023/05/26 01:59:25;;;;;;;8.37;4.90;;;;;;;14.25;82.85;98734.50;5094368;28;20219;-77
2023/05/26 02:01:51;;;;;;;7.30;4.80;;;;;;;14.36;81.96;98731.09;5094417;28;20208;-77
2023/05/26 02:04:18;;;;;;;8.07;4.73;;;;;;;14.32;82.60;98740.59;5094122;28;20690;-77
2023/05/26 02:06:44;;;;;;;5.43;4.70;;;;;;;14.15;83.14;98734.19;5094206;28;20246;-77
2023/05/26 02:09:10;;;;;;;6.67;4.77;;;;;;;14.13;83.96;98736.31;5094193;28;20200;-77
2023/05/26 02:11:37;;;;;;;6.30;4.50;;;;;;;14.12;83.50;98729.31;5094417;28;20204;-77
2023/05/26 02:14:03;;;;;;;7.07;4.90;;;;;;;14.23;83.61;98735.78;5094079;28;20202;-77
2023/05/26 02:16:29;;;;;;;7.03;5.13;;;;;;;14.27;82.93;98729.78;5093931;28;20239;-77
2023/05/26 02:18:56;;;;;;;7.33;4.67;;;;;;;14.26;82.85;98725.47;5093731;28;20567;-77
2023/05/26 02:21:23;;;;;;;7.40;4.93;;;;;;;14.20;83.40;98737.06;5094062;28;20257;-77
2023/05/26 02:23:49;;;;;;;7.63;5.10;;;;;;;14.19;83.35;98740.75;5093568;28;20698;-77
2023/05/26 02:26:15;;;;;;;5.37;4.00;;;;;;;14.25;83.26;98742.53;5093864;28;20227;-77
2023/05/26 02:28:42;;;;;;;6.77;4.93;;;;;;;14.06;84.40;98740.91;5093888;28;20207;-77
2023/05/26 02:31:08;;;;;;;6.80;4.90;;;;;;;13.98;85.18;98740.41;5093445;28;20667;-77
2023/05/26 02:33:35;;;;;;;6.53;4.57;;;;;;;14.06;84.97;98735.56;5093870;28;20206;-77
2023/05/26 02:36:01;;;;;;;7.00;4.27;;;;;;;14.13;84.93;98738.97;5093768;28;20230;-77
2023/05/26 02:38:27;;;;;;;5.90;4.97;;;;;;;14.03;84.60;98737.88;5093785;28;20210;-77
2023/05/26 02:40:54;;;;;;;7.33;4.80;;;;;;;14.09;86.03;98734.28;5092889;28;20667;-77
2023/05/26 02:43:23;;;;;;;7.17;4.83;;;;;;;14.07;85.19;98737.19;5093694;28;20246;-77
2023/05/26 02:45:50;;;;;;;6.27;4.57;;;;;;;14.14;83.98;98735.25;5093525;28;20234;-77
2023/05/26 02:48:16;;;;;;;6.33;4.80;;;;;;;14.16;84.36;98738.50;5093750;28;20211;-77
2023/05/26 02:50:43;;;;;;;7.33;4.53;;;;;;;14.05;84.19;98731.25;5093703;28;20208;-77
2023/05/26 02:53:09;;;;;;;10.33;4.90;;;;;;;13.94;84.73;98733.84;5093581;28;20200;-77
2023/05/26 02:55:36;;;;;;;10.37;5.00;;;;;;;14.10;84.45;98731.41;5093365;28;20224;-76
2023/05/26 02:58:02;;;;;;;7.30;4.67;;;;;;;14.00;84.78;98730.28;5093495;28;20200;-76
2023/05/26 03:00:28;;;;;;;6.57;4.70;;;;;;;13.94;84.63;98734.69;5093653;28;20204;-77
2023/05/26 03:02:55;;;;;;;6.63;4.90;;;;;;;13.97;85.35;98728.88;5093263;28;20203;-77
2023/05/26 03:05:21;;;;;;;6.27;4.67;;;;;;;13.95;85.26;98732.81;5093238;28;20290;-77
2023/05/26 03:07:47;;;;;;;9.90;4.90;;;;;;;13.94;85.88;98731.19;5093061;28;20642;-77
2023/05/26 03:10:14;;;;;;;8.17;4.33;;;;;;;13.98;85.03;98735.06;5093372;28;20212;-77
2023/05/26 03:12:40;;;;;;;9.83;4.83;;;;;;;13.96;85.73;98724.56;5093304;28;20203;-76
2023/05/26 03:15:07;;;;;;;9.83;5.17;;;;;;;13.89;85.01;98729.16;5093149;28;20207;-77
2023/05/26 03:17:34;;;;;;;7.73;4.90;;;;;;;13.97;84.59;98730.75;5093219;28;20219;-77
2023/05/26 03:20:00;;;;;;;6.73;4.57;;;;;;;13.91;84.82;98726.28;5093281;28;20203;-77
2023/05/26 03:22:26;;;;;;;8.67;5.67;;;;;;;13.92;85.80;98720.72;5093179;28;20204;-77
2023/05/26 03:24:53;;;;;;;7.77;4.80;;;;;;;13.82;85.72;98725.78;5094181;28;20230;-77
2023/05/26 03:27:22;;;;;;;8.77;5.07;;;;;;;13.75;86.87;98724.22;5093299;28;20251;-77
2023/05/26 03:29:48;;;;;;;8.13;4.73;;;;;;;13.75;87.22;98713.53;5093395;28;20295;-77
2023/05/26 03:32:15;;;;;;;5.87;5.10;;;;;;;13.66;89.49;98717.53;5093036;28;20200;-77
2023/05/26 03:34:41;;;;;;;6.47;4.73;;;;;;;13.67;88.70;98721.84;5093022;28;20208;-77
2023/05/26 03:37:07;;;;;;;8.47;5.37;;;;;;;13.62;88.78;98727.03;5092960;28;20220;-77
2023/05/26 03:39:34;;;;;;;8.07;5.33;;;;;;;13.61;89.54;98731.53;5093112;28;20204;-77
2023/05/26 03:42:01;;;;;;;7.63;5.40;;;;;;;13.66;88.89;98729.03;5093076;28;20207;-77
2023/05/26 03:44:28;;;;;;;6.87;5.07;;;;;;;13.67;88.69;98728.00;5093207;28;20220;-77
2023/05/26 03:46:54;;;;;;;6.70;4.70;;;;;;;13.63;89.40;98732.16;5092655;28;20237;-76
2023/05/26 03:49:20;;;;;;;10.00;5.50;;;;;;;13.63;88.95;98732.16;5093131;28;20207;-77
2023/05/26 03:51:47;;;;;;;10.40;5.70;;;;;;;13.60;88.94;98735.25;5094261;28;20211;-77
2023/05/26 03:54:13;;;;;;;8.43;5.70;;;;;;;13.70;88.78;98732.09;5096881;28;20204;-76
2023/05/26 03:56:39;;;;;;;8.30;4.90;;;;;;;13.67;89.42;98736.03;5096578;28;20224;-77
2023/05/26 03:59:06;;;;;;;9.43;5.40;;;;;;;13.71;88.81;98733.72;5096399;28;20716;-77
2023/05/26 04:01:33;;;;;;;7.87;5.37;;;;;;;13.82;87.45;98731.13;5095962;28;20560;-77
2023/05/26 04:03:59;;;;;;;9.53;5.30;;;;;;;13.72;88.02;98733.50;5096387;28;20251;-77
2023/05/26 04:06:27;;;;;;;9.53;5.70;;;;;;;13.71;88.59;98734.50;5096081;28;20224;-76
2023/05/26 04:08:53;;;;;;;10.37;6.00;;;;;;;13.76;88.80;98733.88;5096351;28;20208;-77
2023/05/26 04:11:21;;;;;;;7.80;6.00;;;;;;;13.84;89.18;98736.25;5096254;28;20215;-77
2023/05/26 04:13:47;;;;;;;9.13;6.20;;;;;;;13.65;88.71;98738.09;5096343;28;20253;-77
2023/05/26 04:16:14;;;;;;;10.57;6.10;;;;;;;13.73;89.36;98739.63;5095958;28;20232;-77
2023/05/26 04:18:40;;;;;;;10.13;6.60;;;;;;;13.76;88.96;98745.38;5096218;28;20235;-77
2023/05/26 04:21:08;;;;;;;13.77;7.10;;;;;;;13.60;88.96;98745.13;5096027;28;20207;-77
2023/05/26 04:23:34;;;;;;;9.63;6.60;;;;;;;13.75;90.26;98737.59;5095874;28;20231;-77
2023/05/26 04:26:03;;;;;;;11.00;7.07;;;;;;;13.85;90.42;98743.22;5095823;28;20224;-77
2023/05/26 04:28:29;;;;;;;9.63;6.00;;;;;;;13.82;88.18;98743.66;5095942;28;20204;-77
2023/05/26 04:30:56;;;;;;;10.63;6.73;;;;;;;13.85;89.08;98737.88;5095869;28;20204;-77
2023/05/26 04:33:22;;;;;;;10.97;7.37;;;;;;;13.81;88.09;98734.84;5095862;28;20208;-77
2023/05/26 04:35:49;;;;;;;12.20;7.20;;;;;;;13.76;87.93;98740.03;5095745;28;20223;-77
2023/05/26 04:38:15;;;;;;;13.43;7.40;;;;;;;13.81;88.28;98740.19;5095732;28;20208;-76
2023/05/26 04:40:43;;;;;;;9.13;6.47;;;;;;;13.77;87.62;98752.34;5094940;28;20208;-77
2023/05/26 04:43:10;;;;;;;12.33;6.43;;;;;;;13.84;86.44;98747.75;5095944;28;20207;-77
2023/05/26 04:45:37;;;;;;;8.23;5.90;;;;;;;13.96;86.49;98751.31;5096411;28;20230;-77
2023/05/26 04:48:05;;;;;;;8.37;6.37;;;;;;;14.03;85.36;98757.41;5095631;28;20200;-77
2023/05/26 04:50:32;;;;;;;8.23;6.03;;;;;;;13.98;85.51;98754.56;5096520;28;20356;-77
2023/05/26 04:52:59;;;;;;;9.70;5.80;;;;;;;13.92;86.66;98754.63;5095770;28;20247;-77
2023/05/26 04:55:26;;;;;;;11.23;6.50;;;;;;;13.94;86.13;98748.06;5095223;28;20235;-77
2023/05/26 04:57:52;;;;;;;9.60;5.80;;;;;;;13.86;84.95;98745.66;5095841;28;20207;-77
2023/05/26 05:00:19;;;;;;;9.37;5.90;;;;;;;14.18;85.85;98747.13;5095301;28;20199;-77
2023/05/26 05:02:46;;;;;;;10.73;5.77;;;;;;;14.70;81.52;98742.97;5095520;28;20212;-77
2023/05/26 05:05:12;;;;;;;9.63;5.50;;;;;;;15.52;78.14;98743.66;5095034;28;20231;-77
2023/05/26 05:07:39;;;;;;;9.83;6.00;;;;;;;16.29;73.37;98750.44;5094944;28;20679;-77
2023/05/26 05:10:07;;;;;;;11.77;5.83;;;;;;;16.67;70.63;98738.06;5095236;28;20693;-77
2023/05/26 05:12:35;;;;;;;10.30;5.70;;;;;;;16.60;70.48;98753.47;5095151;28;20203;-77
2023/05/26 05:15:01;;;;;;;10.20;6.20;;;;;;;15.88;73.85;98748.78;5094715;28;20685;-77
2023/05/26 05:17:28;;;;;;;10.30;6.20;;;;;;;15.74;75.43;98757.31;5094595;28;20212;-77
2023/05/26 05:19:54;;;;;;;6.40;5.00;;;;;;;15.30;75.51;98752.50;5096050;28;20204;-77
2023/05/26 05:22:20;;;;;;;9.60;5.47;;;;;;;15.63;75.98;98758.13;5095118;28;20200;-77
2023/05/26 05:24:47;;;;;;;11.13;6.10;;;;;;;16.24;72.52;98763.75;5094521;28;20234;-77
2023/05/26 05:27:13;;;;;;;9.20;6.50;;;;;;;15.90;74.29;98765.47;5094808;28;20223;-77
2023/05/26 05:29:39;;;;;;;8.97;6.00;;;;;;;15.75;74.81;98762.41;5094620;28;20204;-77
2023/05/26 05:32:06;;;;;;;11.03;6.10;;;;;;;15.55;76.76;98767.34;5095088;28;20200;-77
2023/05/26 05:34:32;;;;;;;13.30;6.40;;;;;;;15.57;76.27;98767.94;5094298;28;20688;-77
2023/05/26 05:36:58;;;;;;;9.43;6.17;;;;;;;14.90;77.93;98773.75;5094459;28;20709;-77
2023/05/26 05:39:25;;;;;;;10.70;5.80;;;;;;;15.13;81.04;98776.47;5094383;28;20574;-77
2023/05/26 05:41:51;;;;;;;7.70;5.57;;;;;;;15.40;78.94;98775.03;5094450;28;20578;-77
2023/05/26 05:44:18;;;;;;;10.30;5.93;;;;;;;15.49;78.39;98783.53;5094648;28;20246;-77
2023/05/26 05:46:45;;;;;;;9.93;6.20;;;;;;;15.63;75.71;98777.72;5094780;28;20765;-77
2023/05/26 05:49:11;;;;;;;11.67;6.47;;;;;;;15.39;77.40;98777.94;5096042;28;20207;-77
2023/05/26 05:51:38;;;;;;;8.97;6.33;;;;;;;15.51;77.42;98773.41;5094575;28;20212;-77
2023/05/26 05:54:04;;;;;;;9.43;6.10;;;;;;;15.60;75.93;98778.16;5094320;28;20666;-77
2023/05/26 05:56:31;;;;;;;10.13;6.53;;;;;;;15.55;75.17;98783.41;5093609;28;20351;-77
2023/05/26 05:58:57;;;;;;;10.33;6.20;;;;;;;15.52;78.12;98781.19;5094556;28;20214;-77
2023/05/26 06:01:23;;;;;;;11.90;6.37;;;;;;;15.41;77.66;98787.38;5094877;28;20211;-77
2023/05/26 06:03:50;;;;;;;12.60;6.10;;;;;;;15.48;77.16;98785.41;5094015;28;20211;-77
2023/05/26 06:06:17;;;;;;;7.57;5.87;;;;;;;14.87;78.65;98784.91;5095037;28;20585;-77
2023/05/26 06:08:44;;;;;;;11.53;6.67;;;;;;;15.24;77.42;98793.63;5093910;28;20212;-77
2023/05/26 06:11:11;;;;;;;8.47;5.97;;;;;;;15.24;77.80;98789.06;5093665;28;20215;-77
2023/05/26 06:13:37;;;;;;;10.50;6.37;;;;;;;15.52;78.08;98791.91;5093498;28;20574;-77
2023/05/26 06:16:04;;;;;;;9.13;6.00;;;;;;;15.55;76.29;98796.00;5092972;28;20319;-77
2023/05/26 06:18:30;;;;;;;8.63;6.67;;;;;;;15.63;76.92;98804.53;5094194;28;20200;-77
2023/05/26 06:20:57;;;;;;;8.97;6.33;;;;;;;15.75;76.38;98797.28;5093472;28;20686;-77
2023/05/26 06:23:23;;;;;;;10.87;6.13;;;;;;;15.74;74.61;98800.22;5093574;28;20647;-77
2023/05/26 06:25:50;;;;;;;9.47;6.10;;;;;;;15.66;74.51;98798.69;5093238;28;20575;-77
2023/05/26 06:28:16;;;;;;;8.77;6.37;;;;;;;16.07;72.59;98795.88;5093810;28;20200;-77
2023/05/26 06:30:42;;;;;;;9.47;6.60;;;;;;;15.93;76.42;98799.03;5093357;28;20215;-77
2023/05/26 06:33:09;;;;;;;7.67;5.87;;;;;;;16.10;75.27;98798.06;5093340;28;20206;-74
2023/05/26 06:35:35;;;;;;;9.90;6.77;;;;;;;16.07;73.71;98800.41;5093141;28;20227;-74
2023/05/26 06:38:01;;;;;;;10.97;6.23;;;;;;;16.14;76.72;98799.22;5093243;28;20200;-74
2023/05/26 06:40:28;;;;;;;9.57;6.33;;;;;;;15.74;73.60;98794.84;5092961;28;20204;-74
2023/05/26 06:42:54;;;;;;;10.67;6.50;;;;;;;16.24;72.65;98796.75;5093316;28;20204;-74
2023/05/26 06:45:20;;;;;;;11.03;6.50;;;;;;;16.06;73.25;98799.59;5093124;28;20231;-74
2023/05/26 06:47:48;;;;;;;10.50;6.13;;;;;;;16.15;72.72;98798.16;5093742;28;20551;-74
2023/05/26 06:50:14;;;;;;;10.70;6.40;;;;;;;16.27;73.54;98790.91;5093605;28;20321;-74
2023/05/26 06:52:41;;;;;;;10.60;7.00;;;;;;;15.87;74.57;98800.78;5093440;28;20203;-74
2023/05/26 06:55:07;;;;;;;9.27;5.93;;;;;;;15.91;75.99;98801.94;5093403;28;20196;-74
2023/05/26 06:57:34;;;;;;;11.20;6.60;;;;;;;16.07;74.44;98809.28;5093465;28;20214;-74
2023/05/26 07:00:00;;;;;;;11.37;6.20;;;;;;;16.28;73.54;98797.91;5093055;28;20211;-74
2023/05/26 07:02:26;;;;;;;11.30;6.33;;;;;;;16.12;72.42;98803.19;5093010;28;20693;-74
2023/05/26 07:04:53;;;;;;;12.37;6.40;;;;;;;16.29;73.19;98804.91;5093509;28;20224;-74
2023/05/26 07:07:19;;;;;;;11.97;6.17;;;;;;;16.19;71.81;98798.53;5092790;28;20223;-74
2023/05/26 07:09:45;;;;;;;10.63;5.90;;;;;;;16.17;73.71;98801.44;5093175;28;20220;-75
2023/05/26 07:12:12;;;;;;;11.70;6.60;;;;;;;16.43;71.18;98800.94;5093418;28;20686;-74
2023/05/26 07:14:38;;;;;;;8.57;6.63;;;;;;;15.63;71.57;98801.84;5093282;28;20609;-75
2023/05/26 07:17:05;;;;;;;11.07;6.70;;;;;;;15.58;74.04;98808.94;5093123;28;20235;-75
2023/05/26 07:19:31;;;;;;;8.70;6.57;;;;;;;16.18;73.67;98803.06;5093438;28;20204;-74
2023/05/26 07:21:57;;;;;;;9.93;6.73;;;;;;;15.92;72.93;98800.09;5093517;28;20210;-74
2023/05/26 07:24:24;;;;;;;9.90;6.83;;;;;;;16.05;75.49;98803.31;5093246;28;20235;-75
2023/05/26 07:26:50;;;;;;;10.27;6.20;;;;;;;16.37;74.47;98806.41;5094342;28;20228;-74
2023/05/26 07:29:16;;;;;;;11.17;6.87;;;;;;;16.03;72.85;98809.97;5096720;28;20685;-75
2023/05/26 07:31:43;;;;;;;9.23;6.73;;;;;;;16.25;72.23;98803.78;5097355;28;20246;-75
2023/05/26 07:34:10;;;;;;;9.77;6.40;;;;;;;16.81;72.49;98811.06;5096855;28;20686;-74
2023/05/26 07:36:36;;;;;;;9.67;7.27;;;;;;;16.20;72.85;98811.69;5096839;28;20305;-74
2023/05/26 07:39:03;;;;;;;10.33;6.93;;;;;;;16.68;72.82;98811.34;5096821;28;20203;-74
2023/05/26 07:41:29;;;;;;;10.20;6.57;;;;;;;16.35;71.59;98806.66;5096324;28;20204;-75
2023/05/26 07:43:56;;;;;;;11.17;7.00;;;;;;;16.14;72.29;98812.63;5096804;28;20233;-75
2023/05/26 07:46:22;;;;;;;10.97;6.83;;;;;;;16.44;72.35;98807.94;5096812;28;20253;-74
2023/05/26 07:48:49;;;;;;;9.70;6.80;;;;;;;16.90;72.54;98807.75;5096846;28;20210;-74
2023/05/26 07:51:16;;;;;;;10.00;6.87;;;;;;;17.18;71.70;98814.97;5096782;28;20211;-74
2023/05/26 07:53:42;;;;;;;10.07;6.97;;;;;;;16.67;72.38;98809.72;5096661;28;20211;-75
2023/05/26 07:56:09;;;;;;;9.40;6.40;;;;;;;16.42;71.07;98804.66;5096219;28;20222;-74
2023/05/26 07:58:37;;;;;;;8.83;6.77;;;;;;;16.37;71.67;98812.59;5096237;28;20200;-75
2023/05/26 08:01:03;;;;;;;10.77;6.67;;;;;;;16.97;72.39;98819.16;5096545;28;20208;-74
2023/05/26 08:03:29;;;;;;;11.40;7.37;;;;;;;17.20;70.36;98813.66;5096457;28;20204;-74
2023/05/26 08:05:56;;;;;;;10.53;6.77;;;;;;;17.35;69.37;98813.09;5096263;28;20254;-74
2023/05/26 08:08:22;;;;;;;9.67;6.47;;;;;;;17.56;68.56;98820.50;5096590;28;20214;-74
2023/05/26 08:10:49;;;;;;;8.80;6.60;;;;;;;17.57;68.78;98814.03;5096304;28;20207;-74
2023/05/26 08:13:15;;;;;;;11.77;7.33;;;;;;;17.56;66.20;98817.81;5095714;28;20608;-74
2023/05/26 08:15:42;;;;;;;11.93;7.27;;;;;;;17.57;68.29;98812.19;5095686;28;20269;-74
2023/05/26 08:18:08;;;;;;;10.33;6.80;;;;;;;17.64;70.22;98810.13;5096211;28;20188;-74
2023/05/26 08:20:34;;;;;;;8.57;6.57;;;;;;;17.06;72.17;98811.53;5095744;28;20250;-75
2023/05/26 08:23:01;;;;;;;10.63;6.33;;;;;;;17.50;71.70;98819.59;5096004;28;20207;-74
2023/05/26 08:25:27;;;;;;;9.13;6.67;;;;;;;17.74;69.99;98804.88;5095302;28;20592;-74
2023/05/26 08:27:54;;;;;;;8.77;7.17;;;;;;;17.89;69.20;98815.06;5096042;28;20215;-74
2023/05/26 08:30:20;;;;;;;13.57;7.70;;;;;;;17.22;69.52;98814.25;5095977;28;20203;-75
2023/05/26 08:32:47;;;;;;;11.70;7.53;;;;;;;17.14;68.68;98806.56;5095869;28;20200;-75
2023/05/26 08:35:13;;;;;;;8.83;6.63;;;;;;;17.66;69.70;98799.94;5095948;28;20208;-74
2023/05/26 08:37:40;;;;;;;9.43;6.90;;;;;;;17.83;69.66;98803.41;5094738;28;20548;-74
2023/05/26 08:40:07;;;;;;;10.57;6.73;;;;;;;18.25;67.83;98807.25;5095673;28;20204;-74
2023/05/26 08:42:42;;;;;;;8.70;6.60;;;;;;;18.29;67.00;98808.38;5095638;28;20298;-75
2023/05/26 08:45:09;;;;;;;8.57;6.50;;;;;;;17.83;68.37;98808.78;5095463;28;20215;-74
2023/05/26 08:47:36;;;;;;;13.10;7.20;;;;;;;18.07;66.01;98801.34;5095038;28;20208;-75
2023/05/26 08:50:06;;;;;;;11.40;6.63;;;;;;;18.24;68.15;98802.91;5095109;28;20616;-75
2023/05/26 08:52:34;;;;;;;12.27;6.70;;;;;;;18.08;67.53;98811.84;5095136;28;20212;-74
2023/05/26 08:55:00;;;;;;;8.47;6.80;;;;;;;18.57;64.04;98802.84;5095107;28;20203;-74
2023/05/26 08:57:30;;;;;;;11.00;6.47;;;;;;;18.81;65.20;98804.16;5095343;28;20234;-74
2023/05/26 08:59:57;;;;;;;10.00;6.83;;;;;;;18.83;62.99;98801.22;5095216;28;20572;-74
2023/05/26 09:02:23;;;;;;;9.87;6.73;;;;;;;18.40;64.95;98804.78;5095296;28;20207;-74
2023/05/26 09:04:51;;;;;;;10.57;6.40;;;;;;;18.69;65.64;98808.88;5094582;28;20224;-74
2023/05/26 09:07:17;;;;;;;9.97;6.87;;;;;;;18.45;64.21;98798.63;5094782;28;20247;-75
2023/05/26 09:09:44;;;;;;;10.20;6.50;;;;;;;18.74;65.05;98808.94;5095169;28;20208;-74
2023/05/26 09:12:11;;;;;;;13.10;6.60;;;;;;;19.11;64.54;98801.78;5094838;28;20214;-74
2023/05/26 09:14:39;;;;;;;12.00;6.77;;;;;;;19.20;63.83;98802.97;5094981;28;20204;-75
2023/05/26 09:17:06;;;;;;;13.07;6.67;;;;;;;18.58;62.99;98803.63;5094430;28;20231;-75
2023/05/26 09:19:34;;;;;;;9.97;6.17;;;;;;;18.93;64.49;98802.16;5095084;28;20211;-75
2023/05/26 09:22:11;;;;;;;8.80;6.60;;;;;;;18.08;65.32;98800.25;5094923;28;20200;-75
2023/05/26 09:24:48;;;;;;;11.90;6.77;;;;;;;18.50;65.88;98802.19;5094728;28;20194;-75
2023/05/26 09:27:20;;;;;;;13.07;6.73;;;;;;;19.20;65.21;98804.81;5094381;28;20227;-75
2023/05/26 09:29:54;;;;;;;9.23;6.40;;;;;;;19.72;66.17;98805.00;5094731;28;20215;-74
2023/05/26 09:32:26;;;;;;;8.87;6.40;;;;;;;20.02;62.33;98808.72;5094716;28;20282;-74
2023/05/26 09:34:53;;;;;;;9.70;6.83;;;;;;;19.55;59.75;98808.66;5094534;28;20188;-75
2023/05/26 09:37:28;;;;;;;9.13;6.47;;;;;;;19.62;60.02;98807.66;5094623;28;20220;-75
2023/05/26 09:39:54;;;;;;;11.90;6.20;;;;;;;19.97;60.90;98805.16;5094522;28;20192;-75
2023/05/26 09:42:21;;;;;;;11.03;6.20;;;;;;;20.25;58.86;98807.53;5094245;28;20219;-74
2023/05/26 09:44:53;;;;;;;9.90;6.70;;;;;;;19.14;59.95;98801.25;5093935;28;20670;-75
2023/05/26 09:47:23;;;;;;;11.37;6.60;;;;;;;18.94;62.21;98814.56;5094241;28;20230;-75
2023/05/26 09:49:51;;;;;;;11.00;7.23;;;;;;;19.48;59.76;98806.47;5093616;28;20663;-75
2023/05/26 09:52:18;;;;;;;9.77;6.87;;;;;;;19.84;60.58;98805.66;5093909;28;20295;-75
2023/05/26 09:54:45;;;;;;;9.27;7.00;;;;;;;19.82;60.28;98815.88;5094333;28;20208;-75
2023/05/26 09:57:14;;;;;;;10.00;6.03;;;;;;;20.32;59.89;98813.50;5093966;28;20224;-74
2023/05/26 09:59:42;;;;;;;10.80;6.30;;;;;;;20.68;58.26;98799.88;5094250;28;20218;-74
2023/05/26 10:02:20;;;;;;;8.47;6.10;;;;;;;20.65;58.15;98800.41;5094356;28;20211;-74
2023/05/26 10:04:49;;;;;;;8.43;5.83;;;;;;;20.67;58.08;98810.94;5094523;28;20188;-74
2023/05/26 10:07:20;;;;;;;9.07;5.87;;;;;;;20.76;57.65;98803.97;5094017;28;20259;-74
2023/05/26 10:09:56;;;;;;;12.67;7.17;;;;;;;19.84;59.06;98805.66;5094568;28;20192;-75
2023/05/26 10:12:42;;;;;;;10.70;7.07;;;;;;;20.06;59.24;98806.31;5093887;28;20207;-74
2023/05/26 10:15:10;;;;;;;8.43;6.20;;;;;;;20.44;60.29;98798.69;5092564;28;20270;-74
2023/05/26 10:17:37;;;;;;;9.00;6.57;;;;;;;20.37;58.32;98805.41;5092019;28;20248;-74
2023/05/26 10:20:04;;;;;;;9.47;6.50;;;;;;;20.47;57.37;98797.34;5093111;28;20268;-74
2023/05/26 10:22:47;;;;;;;9.93;6.50;;;;;;;20.59;59.47;98797.94;5092968;28;20204;-74
2023/05/26 10:25:36;;;;;;;11.00;6.47;;;;;;;21.02;58.52;98811.09;5092884;28;20215;-74
2023/05/26 10:28:12;;;;;;;10.53;6.70;;;;;;;21.22;57.54;98809.22;5092896;28;20188;-74
2023/05/26 10:30:41;;;;;;;8.67;6.10;;;;;;;20.47;58.00;98794.66;5093278;28;20187;-74
2023/05/26 10:33:13;;;;;;;11.13;6.40;;;;;;;20.91;58.96;98806.72;5093461;28;20212;-74
2023/05/26 10:35:54;;;;;;;9.00;6.13;;;;;;;20.92;54.95;98809.16;5093852;28;20223;-74
2023/05/26 10:38:20;;;;;;;9.07;6.20;;;;;;;21.04;57.04;98808.91;5095101;28;20188;-74
2023/05/26 10:40:53;;;;;;;11.10;5.73;;;;;;;20.87;55.38;98805.59;5094066;28;20215;-74
2023/05/26 10:43:23;;;;;;;9.80;6.00;;;;;;;21.09;55.39;98808.94;5093457;28;20215;-74
2023/05/26 10:45:56;;;;;;;10.93;6.33;;;;;;;20.75;56.93;98799.63;5093202;28;20227;-75
2023/05/26 10:48:26;;;;;;;8.80;6.07;;;;;;;20.77;55.39;98802.88;5093463;28;20200;-74
2023/05/26 10:50:55;;;;;;;8.73;5.97;;;;;;;20.39;56.32;98787.88;5093143;28;20261;-75
2023/05/26 10:53:23;;;;;;;10.17;6.40;;;;;;;20.39;56.08;98795.19;5093712;28;20218;-74
2023/05/26 10:56:02;;;;;;;10.97;6.07;;;;;;;20.54;55.81;98790.66;5094222;28;20223;-75
2023/05/26 10:58:40;;;;;;;9.93;6.43;;;;;;;20.38;55.81;98798.94;5092928;28;20631;-75
2023/05/26 11:01:11;;;;;;;8.43;5.57;;;;;;;20.35;55.61;98789.47;5093581;28;20639;-74
2023/05/26 11:03:43;;;;;;;8.50;5.77;;;;;;;20.28;56.88;98788.09;5097635;28;20192;-75
2023/05/26 11:06:11;;;;;;;6.87;5.67;;;;;;;20.60;55.55;98781.47;5097426;28;20239;-75
2023/05/26 11:08:39;;;;;;;6.70;5.67;;;;;;;21.24;56.79;98792.72;5097286;28;20208;-74
2023/05/26 11:11:11;;;;;;;10.07;5.53;;;;;;;21.03;53.73;98797.28;5097478;28;20208;-74
2023/05/26 11:13:50;;;;;;;9.10;5.73;;;;;;;21.14;54.43;98798.13;5097456;28;20192;-75
2023/05/26 11:16:18;;;;;;;9.93;5.80;;;;;;;20.65;53.36;98788.78;5097283;28;20242;-75
2023/05/26 11:18:55;;;;;;;7.83;5.83;;;;;;;21.05;54.56;98792.44;5097142;28;20212;-75
2023/05/26 11:21:26;;;;;;;8.00;4.90;;;;;;;21.28;54.94;98781.09;5097579;28;20215;-74
2023/05/26 11:23:55;;;;;;;8.37;5.30;;;;;;;21.29;54.90;98781.91;5097069;28;20208;-74
2023/05/26 11:26:23;;;;;;;10.50;5.63;;;;;;;20.83;55.78;98782.88;5096672;28;20300;-75
2023/05/26 11:28:50;;;;;;;8.23;6.03;;;;;;;21.20;54.22;98786.25;5096671;28;20578;-74
2023/05/26 11:31:20;;;;;;;7.17;5.67;;;;;;;20.80;54.61;98789.63;5097348;28;20204;-74
2023/05/26 11:33:48;;;;;;;8.10;5.27;;;;;;;20.81;55.28;98779.66;5096964;28;20210;-75
2023/05/26 11:36:16;;;;;;;12.60;6.17;;;;;;;21.03;54.99;98769.44;5096570;28;20632;-75